Time;durP1;ratioP1;P1;durP2;ratioP2;P2;SDS_P1;SDS_P2;PMS_P1;PMS_P2;Temp;Humidity;BMP_temperature;BMP_pressure;BME280_temperature;BME280_humidity;BME280_pressure;Samples;Min_cycle;Max_cycle;Signal;HPM_P1;HPM_P2
2022/01/13 00:00:35;;;;;;;;;18.25;17.25;;;;;-8.68;62.99;102363.53;6183601;23;8908;-73
2022/01/13 00:03:30;;;;;;;;;21.75;21.75;;;;;-8.76;63.00;102362.69;6184079;23;8793;-73
2022/01/13 00:06:26;;;;;;;;;24.00;23.25;;;;;-8.70;63.20;102354.81;6182963;23;8820;-73
2022/01/13 00:09:21;;;;;;;;;29.50;24.25;;;;;-8.48;63.39;102353.38;6185142;23;9542;-72
2022/01/13 00:12:19;;;;;;;;;18.50;18.25;;;;;-8.54;63.14;102351.34;6184228;23;8899;-72
2022/01/13 00:18:17;;;;;;;;;26.50;24.25;;;;;-8.74;63.91;102356.16;6184211;23;8793;-72
2022/01/13 00:24:12;;;;;;;;;46.00;42.25;;;;;-8.53;63.77;102362.91;6183511;23;8816;-72
2022/01/13 00:27:11;;;;;;;;;42.50;41.00;;;;;-8.55;64.50;102363.06;6183794;23;8896;-72
2022/01/13 00:30:14;;;;;;;;;27.25;27.25;;;;;-8.79;64.85;102368.38;6183780;23;8785;-72
2022/01/13 00:33:11;;;;;;;;;15.00;15.00;;;;;-8.74;65.23;102371.41;6185137;23;8824;-72
2022/01/13 00:36:07;;;;;;;;;19.50;18.25;;;;;-8.71;65.52;102368.41;6185957;23;8900;-72
2022/01/13 00:39:04;;;;;;;;;18.25;18.00;;;;;-8.66;65.12;102358.03;6185913;23;8816;-72
2022/01/13 00:42:00;;;;;;;;;18.50;18.50;;;;;-8.90;65.19;102361.44;6185799;23;9574;-72
2022/01/13 00:44:55;;;;;;;;;17.50;15.00;;;;;-9.00;65.15;102364.28;6185838;23;8785;-72
2022/01/13 00:47:51;;;;;;;;;11.50;11.50;;;;;-8.61;64.86;102368.25;6187298;23;8835;-72
2022/01/13 00:50:48;;;;;;;;;17.25;17.25;;;;;-8.57;64.82;102373.16;6185558;23;8790;-72
2022/01/13 00:53:44;;;;;;;;;9.75;9.75;;;;;-8.82;65.16;102368.69;6185626;23;8829;-72
2022/01/13 00:56:40;;;;;;;;;11.75;11.75;;;;;-8.86;66.11;102368.19;6185729;23;8821;-72
2022/01/13 00:59:36;;;;;;;;;14.50;14.50;;;;;-8.74;66.09;102366.91;6185698;23;8824;-72
2022/01/13 01:02:31;;;;;;;;;19.50;18.25;;;;;-8.75;66.09;102372.41;6186565;23;9515;-72
2022/01/13 01:05:27;;;;;;;;;9.00;7.75;;;;;-8.81;66.25;102365.03;6185582;23;8872;-72
2022/01/13 01:08:24;;;;;;;;;13.50;13.00;;;;;-8.87;65.65;102363.81;6185485;23;8863;-72
2022/01/13 01:11:20;;;;;;;;;18.75;18.75;;;;;-8.75;65.45;102359.00;6184986;23;8909;-72
2022/01/13 01:14:17;;;;;;;;;13.25;13.25;;;;;-8.87;63.96;102371.03;6185402;23;8904;-72
2022/01/13 01:17:17;;;;;;;;;12.50;12.50;;;;;-8.96;64.65;102364.81;6165545;23;8812;-73
2022/01/13 01:20:13;;;;;;;;;6.75;6.75;;;;;-9.17;64.98;102373.25;6185276;23;8817;-73
2022/01/13 01:23:15;;;;;;;;;12.00;12.00;;;;;-9.23;65.05;102386.44;6185016;23;9098;-73
2022/01/13 01:26:29;;;;;;;;;12.00;12.00;;;;;-9.12;65.33;102372.78;6185841;23;8793;-73
2022/01/13 01:29:30;;;;;;;;;4.00;4.00;;;;;-9.26;65.86;102376.88;6185438;23;8802;-73
2022/01/13 01:32:27;;;;;;;;;12.25;12.25;;;;;-9.05;65.84;102376.47;6185349;23;8888;-73
2022/01/13 01:35:26;;;;;;;;;12.50;11.00;;;;;-9.17;65.24;102388.50;6185295;23;8802;-73
2022/01/13 01:38:22;;;;;;;;;9.50;9.50;;;;;-9.07;65.59;102378.47;6185380;23;9485;-73
2022/01/13 01:41:18;;;;;;;;;10.50;10.50;;;;;-9.11;65.94;102390.53;6185121;23;8797;-73
2022/01/13 01:44:17;;;;;;;;;9.25;9.25;;;;;-8.98;65.38;102375.66;6184372;23;9505;-74
2022/01/13 01:47:16;;;;;;;;;12.00;12.00;;;;;-8.92;65.11;102371.50;6185094;23;8809;-73
2022/01/13 01:50:21;;;;;;;;;12.25;12.25;;;;;-8.82;65.17;102376.72;6185021;23;8871;-73
2022/01/13 01:53:18;;;;;;;;;21.50;21.50;;;;;-9.17;65.18;102381.28;6185181;23;8883;-72
2022/01/13 01:56:14;;;;;;;;;18.25;16.00;;;;;-9.08;65.32;102395.56;6185305;23;8896;-73
2022/01/13 01:59:17;;;;;;;;;17.50;15.50;;;;;-8.96;65.05;102380.88;6184937;23;9518;-73
2022/01/13 02:01:47;;;;;;;;;19.75;15.25;;;;;-8.87;65.03;102379.91;6195311;23;8859;-74
2022/01/13 02:04:18;;;;;;;;;9.00;9.00;;;;;-8.94;65.28;102378.88;6186600;23;8805;-73
2022/01/13 02:07:14;;;;;;;;;27.50;11.50;;;;;-8.96;65.18;102383.56;6184832;23;8801;-74
2022/01/13 02:10:06;;;;;;;;;12.00;11.00;;;;;-8.93;65.39;102387.75;6160065;23;8805;-74
2022/01/13 02:13:07;;;;;;;;;12.00;11.50;;;;;-8.98;65.40;102388.22;6185362;23;8801;-73
2022/01/13 02:16:06;;;;;;;;;15.50;15.00;;;;;-9.05;65.01;102403.28;6185145;23;8805;-73
2022/01/13 02:19:01;;;;;;;;;21.25;19.50;;;;;-9.25;64.89;102400.84;6184831;23;8809;-74
2022/01/13 02:21:57;;;;;;;;;14.75;14.00;;;;;-9.28;65.25;102395.81;6184890;23;8785;-74
2022/01/13 02:24:25;;;;;;;;;27.75;27.75;;;;;-9.87;66.01;102394.72;6186633;23;8790;-73
2022/01/13 02:27:22;;;;;;;;;33.75;20.75;;;;;-9.94;65.31;102400.84;6184791;23;8824;-73
2022/01/13 02:30:17;;;;;;;;;18.25;18.25;;;;;-9.88;65.67;102403.75;6184765;23;8793;-73
2022/01/13 02:33:13;;;;;;;;;21.00;20.50;;;;;-10.05;65.25;102407.28;6185828;23;8778;-73
2022/01/13 02:36:08;;;;;;;;;11.00;11.00;;;;;-10.17;65.06;102406.69;6183955;23;8786;-73
2022/01/13 02:39:04;;;;;;;;;18.25;17.50;;;;;-10.05;64.42;102412.63;6184432;23;8893;-73
2022/01/13 02:42:02;;;;;;;;;10.25;9.25;;;;;-9.94;64.69;102411.56;6184805;23;8887;-73
2022/01/13 02:44:31;;;;;;;;;13.25;13.25;;;;;-9.96;64.03;102409.03;6169049;23;8848;-73
2022/01/13 02:47:37;;;;;;;;;14.00;14.00;;;;;-10.07;62.91;102408.44;6185094;23;8809;-73
2022/01/13 02:50:32;;;;;;;;;7.00;7.00;;;;;-9.77;63.22;102423.25;6184787;23;8809;-74
2022/01/13 02:53:28;;;;;;;;;9.00;9.00;;;;;-9.91;62.41;102416.59;6184656;23;9552;-74
2022/01/13 02:56:25;;;;;;;;;5.00;5.00;;;;;-10.04;62.69;102414.34;6184290;23;8786;-74
2022/01/13 02:59:20;;;;;;;;;9.00;9.00;;;;;-10.08;63.42;102426.31;6184254;23;8798;-74
2022/01/13 03:02:16;;;;;;;;;6.75;6.00;;;;;-10.12;63.65;102428.47;6184461;23;8885;-74
2022/01/13 03:05:13;;;;;;;;;6.50;6.00;;;;;-10.00;63.52;102431.75;6185565;23;8822;-73
2022/01/13 03:08:09;;;;;;;;;4.00;4.00;;;;;-10.13;64.19;102421.41;6184574;23;8844;-73
2022/01/13 03:10:37;;;;;;;;;9.25;9.25;;;;;-10.06;64.34;102436.88;6194670;23;8786;-74
2022/01/13 03:13:33;;;;;;;;;6.00;6.00;;;;;-10.26;65.40;102438.91;6184655;23;8786;-73
2022/01/13 03:16:30;;;;;;;;;5.50;5.50;;;;;-10.20;65.59;102431.03;6184552;23;8859;-74
2022/01/13 03:19:25;;;;;;;;;9.00;6.00;;;;;-10.40;65.93;102434.91;6183349;23;8805;-74
2022/01/13 03:22:21;;;;;;;;;6.50;6.50;;;;;-10.40;67.06;102434.91;6184100;23;8834;-73
2022/01/13 03:25:21;;;;;;;;;5.00;5.00;;;;;-10.26;66.17;102453.13;6185552;23;8813;-73
2022/01/13 03:28:28;;;;;;;;;4.00;4.00;;;;;-10.42;67.25;102445.75;6184340;23;8814;-74
2022/01/13 03:31:23;;;;;;;;;7.50;7.50;;;;;-10.42;67.78;102437.72;6184315;23;8794;-73
2022/01/13 03:34:19;;;;;;;;;5.75;4.25;;;;;-10.36;67.35;102449.63;6184183;23;8836;-73
2022/01/13 03:37:15;;;;;;;;;6.50;5.00;;;;;-10.47;67.40;102440.00;6184250;23;8877;-73
2022/01/13 03:40:12;;;;;;;;;9.00;9.00;;;;;-10.45;67.74;102442.53;6164514;23;8805;-72
2022/01/13 03:43:07;;;;;;;;;6.50;6.50;;;;;-10.49;68.66;102449.19;6184302;23;8884;-72
2022/01/13 03:46:07;;;;;;;;;8.00;8.00;;;;;-10.38;68.51;102454.31;6184237;23;8813;-73
2022/01/13 03:49:08;;;;;;;;;6.00;6.00;;;;;-10.25;68.48;102453.94;6164675;23;8814;-73
2022/01/13 03:52:22;;;;;;;;;9.75;9.75;;;;;-10.24;67.87;102442.25;6184070;23;8777;-73
2022/01/13 03:55:40;;;;;;;;;9.75;9.75;;;;;-10.33;68.26;102453.88;6184427;23;8857;-73
2022/01/13 03:58:57;;;;;;;;;8.50;6.00;;;;;-10.55;68.57;102463.97;6183873;23;8821;-73
2022/01/13 04:02:02;;;;;;;;;6.50;6.50;;;;;-10.68;68.90;102460.81;6167974;23;8808;-73
2022/01/13 04:04:57;;;;;;;;;7.50;7.50;;;;;-10.59;69.10;102461.75;6183888;23;8904;-73
2022/01/13 04:07:53;;;;;;;;;5.50;5.50;;;;;-10.55;69.37;102460.47;6183737;23;8789;-73
2022/01/13 04:10:44;;;;;;;;;4.50;4.50;;;;;-10.46;68.85;102460.41;6163817;23;8871;-74
2022/01/13 04:14:01;;;;;;;;;6.75;6.75;;;;;-10.49;68.96;102460.72;6184288;23;8829;-74
2022/01/13 04:16:57;;;;;;;;;12.00;9.75;;;;;-10.48;68.59;102464.22;6183695;23;8790;-72
2022/01/13 04:19:53;;;;;;;;;6.00;6.00;;;;;-10.28;67.58;102465.78;6183900;23;8828;-73
2022/01/13 04:22:21;;;;;;;;;6.25;5.75;;;;;-10.57;67.43;102465.97;6185074;23;8801;-73
2022/01/13 04:25:21;;;;;;;;;4.00;4.00;;;;;-10.35;67.16;102461.19;6183780;23;8794;-74
2022/01/13 04:27:49;;;;;;;;;5.50;5.50;;;;;-10.43;66.70;102456.56;6194182;23;8788;-74
2022/01/13 04:30:48;;;;;;;;;6.00;6.00;;;;;-10.54;66.95;102462.16;6183944;23;8896;-73
2022/01/13 04:33:43;;;;;;;;;10.00;10.00;;;;;-10.33;66.77;102467.25;6183720;23;8797;-73
2022/01/13 04:36:39;;;;;;;;;6.75;6.75;;;;;-10.47;65.95;102472.09;6183569;23;8786;-73
2022/01/13 04:39:35;;;;;;;;;6.75;6.75;;;;;-10.20;66.08;102473.84;6183856;23;8803;-73
2022/01/13 04:42:35;;;;;;;;;4.00;4.00;;;;;-10.38;65.17;102470.34;6183871;23;8801;-72
2022/01/13 04:45:31;;;;;;;;;6.00;6.00;;;;;-10.24;64.73;102477.03;6183865;23;9622;-72
2022/01/13 04:48:27;;;;;;;;;8.50;8.50;;;;;-10.35;64.66;102483.41;6184017;23;8819;-72
2022/01/13 04:51:26;;;;;;;;;9.25;7.50;;;;;-10.42;64.37;102488.56;6184451;23;9483;-74
2022/01/13 04:54:22;;;;;;;;;5.50;5.50;;;;;-10.21;62.51;102487.41;6183657;23;8809;-72
2022/01/13 04:59:17;;;;;;;;;3.75;3.75;;;;;-10.39;61.72;102476.69;6193743;23;8806;-72
2022/01/13 05:01:45;;;;;;;;;5.00;5.00;;;;;-10.46;61.98;102489.00;6193707;23;8804;-73
2022/01/13 05:04:15;;;;;;;;;8.00;8.00;;;;;-10.46;62.09;102494.34;6193607;23;8778;-73
2022/01/13 05:07:12;;;;;;;;;5.00;5.00;;;;;-10.48;61.30;102486.47;6183758;23;8824;-73
2022/01/13 05:09:39;;;;;;;;;11.50;5.50;;;;;-10.54;61.04;102483.53;6194028;23;8809;-74
2022/01/13 05:12:41;;;;;;;;;6.25;6.25;;;;;-10.67;61.84;102490.06;6183803;23;8820;-73
2022/01/13 05:15:39;;;;;;;;;7.00;7.00;;;;;-10.68;61.81;102496.41;6164104;23;8801;-73
2022/01/13 05:22:15;;;;;;;;;4.00;4.00;;;;;-10.64;61.82;102490.78;6185371;23;9554;-73
2022/01/13 05:25:01;;;;;;;;;7.50;7.50;;;;;-10.51;61.61;102486.75;6184504;23;8909;-73
2022/01/13 05:27:29;;;;;;;;;5.00;5.00;;;;;-10.61;61.49;102494.00;6169402;23;8805;-72
2022/01/13 05:30:25;;;;;;;;;10.50;10.50;;;;;-10.82;65.67;102502.22;6185074;23;8831;-72
2022/01/13 05:32:53;;;;;;;;;4.00;4.00;;;;;-10.76;64.81;102495.47;6194819;23;8787;-72
2022/01/13 05:35:49;;;;;;;;;8.00;8.00;;;;;-10.80;64.10;102499.44;6185317;23;8811;-69
2022/01/13 05:38:45;;;;;;;;;7.00;7.00;;;;;-10.77;63.17;102504.47;6186428;23;8827;-75
2022/01/13 05:41:40;;;;;;;;;7.00;7.00;;;;;-10.77;62.32;102509.81;6185230;23;8840;-74
2022/01/13 05:44:39;;;;;;;;;6.25;6.25;;;;;-10.70;62.39;102510.91;6184164;23;8809;-74
2022/01/13 05:47:34;;;;;;;;;4.50;4.50;;;;;-10.73;62.13;102517.41;6185447;23;8815;-75
2022/01/13 05:50:31;;;;;;;;;6.00;6.00;;;;;-10.84;62.61;102516.72;6185047;23;8942;-74
2022/01/13 05:53:26;;;;;;;;;6.75;6.00;;;;;-11.00;63.35;102522.69;6184995;23;8807;-75
2022/01/13 05:56:23;;;;;;;;;7.75;7.75;;;;;-10.87;63.75;102536.59;6185147;23;8830;-74
2022/01/13 05:59:21;;;;;;;;;9.00;9.00;;;;;-10.79;62.63;102531.34;6184840;23;8811;-74
2022/01/13 06:02:16;;;;;;;;;3.75;3.75;;;;;-10.66;61.62;102531.88;6184676;23;8795;-74
2022/01/13 06:05:12;;;;;;;;;5.00;5.00;;;;;-10.82;62.00;102523.59;6184727;23;8799;-74
2022/01/13 06:08:08;;;;;;;;;9.00;9.00;;;;;-10.75;62.32;102526.53;6185054;23;8795;-74
2022/01/13 06:11:04;;;;;;;;;7.75;7.75;;;;;-10.66;62.37;102523.00;6165348;23;8917;-74
2022/01/13 06:13:59;;;;;;;;;4.50;4.50;;;;;-10.60;62.09;102529.59;6184560;23;8807;-74
2022/01/13 06:16:55;;;;;;;;;4.00;4.00;;;;;-10.37;62.04;102534.41;6185590;23;8849;-74
2022/01/13 06:19:50;;;;;;;;;7.25;7.25;;;;;-10.31;61.73;102527.63;6185088;23;8804;-74
2022/01/13 06:22:48;;;;;;;;;3.50;3.50;;;;;-10.52;60.44;102538.56;6184609;23;9423;-74
2022/01/13 06:25:43;;;;;;;;;5.50;5.50;;;;;-10.12;61.58;102537.34;6182882;23;8870;-75
2022/01/13 06:28:39;;;;;;;;;6.75;6.75;;;;;-10.09;60.86;102542.41;6184401;23;9483;-73
2022/01/13 06:31:34;;;;;;;;;7.25;7.25;;;;;-10.12;61.16;102543.56;6184484;23;8962;-75
2022/01/13 06:34:30;;;;;;;;;10.25;10.25;;;;;-10.39;60.41;102547.09;6184383;23;8817;-74
2022/01/13 06:37:25;;;;;;;;;11.00;9.25;;;;;-10.32;61.28;102544.69;6184592;23;8797;-74
2022/01/13 06:40:21;;;;;;;;;6.75;6.75;;;;;-10.45;60.80;102557.53;6184548;23;8808;-74
2022/01/13 06:43:17;;;;;;;;;12.75;12.00;;;;;-10.33;61.59;102553.69;6184470;23;8840;-75
2022/01/13 06:46:14;;;;;;;;;13.50;13.50;;;;;-10.05;61.16;102551.81;6184020;23;8936;-75
2022/01/13 06:49:10;;;;;;;;;13.75;9.75;;;;;-10.30;61.19;102557.91;6183957;23;9527;-74
2022/01/13 06:52:07;;;;;;;;;13.00;12.25;;;;;-10.21;61.35;102554.28;6184150;23;8903;-74
2022/01/13 06:55:04;;;;;;;;;9.25;9.25;;;;;-10.24;61.68;102552.81;6184090;23;8805;-74
2022/01/13 06:57:59;;;;;;;;;7.50;7.50;;;;;-10.10;61.41;102544.25;6183485;23;8950;-72
2022/01/13 07:00:37;;;;;;;;;14.00;14.00;;;;;-10.05;61.23;102540.25;6170280;23;8880;-71
2022/01/13 07:03:32;;;;;;;;;8.00;8.00;;;;;-10.62;61.23;102545.78;6184867;23;8810;-71
2022/01/13 07:06:00;;;;;;;;;8.00;8.00;;;;;-10.12;60.72;102543.56;6194124;23;8813;-72
2022/01/13 07:08:56;;;;;;;;;4.00;4.00;;;;;-10.02;60.55;102540.81;6184383;23;8789;-71
2022/01/13 07:11:52;;;;;;;;;17.75;14.75;;;;;-9.78;60.12;102536.72;6164595;23;8789;-71
2022/01/13 07:14:47;;;;;;;;;12.00;10.00;;;;;-9.82;60.04;102530.81;6164553;23;8794;-73
2022/01/13 07:17:43;;;;;;;;;6.50;5.50;;;;;-9.92;60.22;102527.34;6183190;23;8797;-72
2022/01/13 07:20:42;;;;;;;;;9.00;9.00;;;;;-9.85;60.94;102528.44;6184308;23;8798;-72
2022/01/13 07:23:37;;;;;;;;;15.00;15.00;;;;;-9.65;60.58;102527.31;6183695;23;8793;-72
2022/01/13 07:26:33;;;;;;;;;12.00;12.00;;;;;-9.52;60.11;102533.09;6183912;23;8812;-71
2022/01/13 07:29:29;;;;;;;;;8.50;7.75;;;;;-9.41;59.43;102544.59;6184104;23;8798;-72
2022/01/13 07:32:24;;;;;;;;;9.00;9.00;;;;;-9.79;59.36;102535.03;6184100;23;8798;-71
2022/01/13 07:35:20;;;;;;;;;8.00;8.00;;;;;-9.58;60.19;102532.91;6184009;23;8829;-71
2022/01/13 07:38:17;;;;;;;;;5.50;5.50;;;;;-9.57;59.82;102539.94;6184182;23;9511;-70
2022/01/13 07:41:13;;;;;;;;;3.25;3.25;;;;;-9.20;59.91;102542.44;6183677;23;9595;-70
2022/01/13 07:44:10;;;;;;;;;6.75;6.75;;;;;-9.10;59.76;102537.81;6183398;23;8893;-71
2022/01/13 07:47:05;;;;;;;;;9.00;9.00;;;;;-9.27;59.55;102536.84;6183777;23;8816;-71
2022/01/13 07:50:01;;;;;;;;;6.75;6.25;;;;;-9.08;59.44;102519.72;6184128;23;8797;-71
2022/01/13 07:52:56;;;;;;;;;9.50;9.50;;;;;-9.05;59.52;102515.88;6183627;23;8797;-71
2022/01/13 07:55:52;;;;;;;;;10.00;10.00;;;;;-9.49;59.54;102513.22;6184190;23;9491;-70
2022/01/13 07:58:48;;;;;;;;;12.00;6.75;;;;;-9.48;60.43;102495.31;6183551;23;9502;-72
2022/01/13 08:01:43;;;;;;;;;8.00;8.00;;;;;-9.14;60.37;102496.22;6184158;23;8813;-71
2022/01/13 08:04:39;;;;;;;;;6.50;6.50;;;;;-9.04;59.93;102488.09;6183363;23;8884;-71
2022/01/13 08:07:34;;;;;;;;;6.50;6.25;;;;;-9.09;59.42;102510.00;6184732;23;8819;-71
2022/01/13 08:10:30;;;;;;;;;8.25;7.00;;;;;-9.22;60.18;102506.88;6183557;23;8821;-70
2022/01/13 08:13:26;;;;;;;;;7.25;7.25;;;;;-8.89;59.86;102509.78;6183666;23;8885;-70
2022/01/13 08:16:32;;;;;;;;;9.00;9.00;;;;;-8.95;59.78;102503.22;6183215;23;8794;-71
2022/01/13 08:19:46;;;;;;;;;9.00;9.00;;;;;-8.95;59.52;102481.78;6183617;23;8798;-71
2022/01/13 08:22:41;;;;;;;;;10.00;10.00;;;;;-8.94;60.24;102483.47;6182875;23;8794;-71
2022/01/13 08:25:38;;;;;;;;;10.25;10.25;;;;;-8.61;59.95;102478.25;6164294;23;8797;-71
2022/01/13 08:28:34;;;;;;;;;6.75;6.75;;;;;-8.66;59.51;102478.75;6183899;23;8790;-71
2022/01/13 08:31:30;;;;;;;;;7.00;7.00;;;;;-8.59;59.96;102470.88;6183414;23;8924;-72
2022/01/13 08:34:26;;;;;;;;;10.25;9.75;;;;;-8.47;59.52;102456.19;6183144;23;8896;-70
2022/01/13 08:37:22;;;;;;;;;8.25;8.25;;;;;-8.22;58.42;102457.03;6183779;23;8805;-71
2022/01/13 08:40:18;;;;;;;;;9.00;9.00;;;;;-7.80;58.15;102450.75;6183658;23;8809;-70
2022/01/13 08:43:15;;;;;;;;;6.00;5.25;;;;;-8.21;57.06;102458.72;6184388;23;8798;-71
2022/01/13 08:46:10;;;;;;;;;14.50;12.25;;;;;-7.60;57.50;102446.72;6183214;23;8797;-70
2022/01/13 08:48:53;;;;;;;;;13.50;13.25;;;;;-7.56;56.89;102437.31;6182673;23;8797;-69
2022/01/13 08:51:48;;;;;;;;;13.00;13.00;;;;;-7.07;56.26;102434.53;6183107;23;8812;-70
2022/01/13 08:54:46;;;;;;;;;15.00;15.00;;;;;-7.01;55.13;102437.41;6184549;23;8970;-69
2022/01/13 08:57:42;;;;;;;;;6.25;6.25;;;;;-6.66;54.87;102434.44;6184959;23;8829;-71
2022/01/13 09:00:41;;;;;;;;;9.25;9.25;;;;;-6.62;55.10;102423.13;6184895;23;8840;-71
2022/01/13 09:03:09;;;;;;;;;17.00;17.00;;;;;-6.20;54.57;102425.44;6187022;23;8789;-70
2022/01/13 09:06:05;;;;;;;;;39.00;36.50;;;;;-6.20;53.37;102419.22;6185280;23;8793;-70
2022/01/13 09:09:00;;;;;;;;;20.75;16.25;;;;;-6.63;53.58;102413.38;6185169;23;8810;-70
2022/01/13 09:11:56;;;;;;;;;10.50;10.50;;;;;-6.38;53.55;102407.88;6185431;23;8813;-70
2022/01/13 09:14:58;;;;;;;;;9.75;7.50;;;;;-6.32;53.75;102405.31;6185520;23;8908;-71
2022/01/13 09:17:54;;;;;;;;;13.25;13.25;;;;;-6.14;52.98;102399.63;6185322;23;8805;-70
2022/01/13 09:20:51;;;;;;;;;11.00;10.00;;;;;-5.96;52.50;102396.66;6184787;23;8829;-69
2022/01/13 09:23:47;;;;;;;;;9.00;9.00;;;;;-6.05;52.84;102400.44;6184595;23;8813;-69
2022/01/13 09:26:44;;;;;;;;;12.00;12.00;;;;;-5.95;53.36;102395.63;6185233;23;8801;-72
2022/01/13 09:29:39;;;;;;;;;12.25;12.25;;;;;-5.34;53.03;102389.16;6184888;23;8794;-69
2022/01/13 09:32:36;;;;;;;;;18.00;17.00;;;;;-5.34;52.38;102409.91;6164059;23;8781;-69
2022/01/13 09:35:32;;;;;;;;;14.00;9.00;;;;;-5.52;50.70;102404.84;6186049;23;8816;-69
2022/01/13 09:38:28;;;;;;;;;6.50;6.50;;;;;-5.49;51.60;102382.91;6184735;23;9275;-69
2022/01/13 09:41:27;;;;;;;;;12.00;12.00;;;;;-5.22;52.39;102386.00;6184659;23;8798;-70
2022/01/13 09:44:27;;;;;;;;;9.25;9.25;;;;;-4.47;51.65;102364.13;6184834;23;9510;-70
2022/01/13 09:47:24;;;;;;;;;13.00;11.00;;;;;-4.35;51.32;102354.53;6185078;23;8828;-69
2022/01/13 09:50:20;;;;;;;;;10.50;10.50;;;;;-4.04;50.48;102353.38;6185291;23;8781;-70
2022/01/13 09:53:16;;;;;;;;;9.67;9.67;;;;;-4.22;51.61;102357.38;6184235;23;8901;-69
2022/01/13 09:56:12;;;;;;;;;10.00;6.33;;;;;-4.31;49.64;102358.50;6184658;23;9519;-71
2022/01/13 09:59:08;;;;;;;;;11.33;10.00;;;;;-4.27;49.88;102353.56;6184533;23;9588;-70
2022/01/13 10:02:04;;;;;;;;;7.00;7.00;;;;;-4.08;49.84;102354.78;6184097;23;8786;-70
2022/01/13 10:04:59;;;;;;;;;8.75;8.75;;;;;-4.65;49.02;102342.13;6184348;23;8821;-69
2022/01/13 10:07:55;;;;;;;;;12.25;12.25;;;;;-4.66;51.02;102343.16;6184170;23;8888;-69
2022/01/13 10:10:51;;;;;;;;;12.25;7.50;;;;;-4.32;50.19;102342.47;6184571;23;8848;-69
2022/01/13 10:17:21;;;;;;;;;13.50;10.50;;;;;-4.60;50.85;102345.94;6184354;23;8813;-69
2022/01/13 10:20:19;;;;;;;;;6.00;6.00;;;;;-4.67;52.03;102330.69;6184906;23;8789;-71
2022/01/13 10:23:15;;;;;;;;;8.33;6.00;;;;;-4.14;51.73;102334.78;6183772;23;8868;-71
2022/01/13 10:26:12;;;;;;;;;12.00;12.00;;;;;-4.13;51.71;102330.22;6183073;23;8845;-69
2022/01/13 10:29:08;;;;;;;;;7.67;7.00;;;;;-3.87;50.82;102318.78;6164693;23;8889;-70
2022/01/13 10:32:05;;;;;;;;;10.00;10.00;;;;;-4.21;51.09;102313.09;6184389;23;8855;-71
2022/01/13 10:35:02;;;;;;;;;13.67;12.67;;;;;-3.98;50.99;102307.50;6184103;23;8822;-69
2022/01/13 10:38:01;;;;;;;;;13.00;12.33;;;;;-3.40;51.15;102307.28;6184595;23;8824;-71
2022/01/13 10:42:15;;;;;;;;;18.00;18.00;;;;;-3.02;49.97;102307.69;6184532;23;8797;-69
2022/01/13 10:44:55;;;;;;;;;52.00;40.50;;;;;-3.48;51.35;102307.44;6184937;23;9564;-69
2022/01/13 10:48:06;;;;;;;;;18.00;16.00;;;;;-2.94;50.12;102295.84;6184532;23;8876;-69
2022/01/13 10:51:07;;;;;;;;;17.67;17.67;;;;;-2.87;49.40;102313.78;6184516;23;8833;-69
2022/01/13 10:54:24;;;;;;;;;16.67;13.67;;;;;-2.61;49.75;102315.78;6184901;23;8816;-71
2022/01/13 10:57:24;;;;;;;;;15.67;15.67;;;;;-2.87;50.23;102304.84;6184388;23;8790;-71
2022/01/13 11:00:22;;;;;;;;;18.00;18.00;;;;;-2.80;50.14;102300.28;6184375;23;9222;-72
2022/01/13 11:03:21;;;;;;;;;13.00;12.00;;;;;-2.81;49.76;102285.06;6184286;23;8817;-70
2022/01/13 11:06:18;;;;;;;;;13.67;13.67;;;;;-2.71;49.11;102276.56;6184342;23;9560;-71
2022/01/13 11:09:18;;;;;;;;;18.33;18.00;;;;;-2.61;49.57;102275.16;6184460;23;8868;-71
2022/01/13 11:12:15;;;;;;;;;26.33;20.33;;;;;-2.72;50.75;102262.19;6184326;23;8877;-70
2022/01/13 11:15:17;;;;;;;;;27.33;25.00;;;;;-2.95;50.36;102253.56;6184230;23;9523;-70
2022/01/13 11:18:13;;;;;;;;;32.00;31.33;;;;;-2.48;50.48;102246.38;6184396;23;8797;-70
2022/01/13 11:21:08;;;;;;;;;20.33;20.33;;;;;-2.74;49.99;102239.88;6184488;23;8844;-71
2022/01/13 11:24:06;;;;;;;;;19.00;19.00;;;;;-2.44;50.54;102242.25;6183888;23;9512;-71
2022/01/13 11:27:02;;;;;;;;;20.33;19.00;;;;;-2.81;50.32;102237.16;6184067;23;8892;-71
2022/01/13 11:29:58;;;;;;;;;32.00;29.00;;;;;-2.71;50.54;102241.34;6184084;23;8806;-70
2022/01/13 11:32:56;;;;;;;;;16.67;16.67;;;;;-2.55;50.76;102230.94;6184161;23;8809;-70
2022/01/13 11:35:56;;;;;;;;;18.67;16.00;;;;;-2.10;49.69;102238.50;6164038;23;8817;-70
2022/01/13 11:38:59;;;;;;;;;17.33;17.33;;;;;-2.50;50.16;102241.19;6184206;23;8789;-71
2022/01/13 11:42:04;;;;;;;;;12.33;12.33;;;;;-2.60;50.84;102249.72;6184022;23;8836;-70
2022/01/13 11:45:09;;;;;;;;;24.00;21.67;;;;;-2.47;50.58;102251.59;6163978;23;8905;-69
2022/01/13 11:48:25;;;;;;;;;28.67;22.33;;;;;-2.46;50.54;102238.88;6183498;23;8829;-70
2022/01/13 11:51:21;;;;;;;;;24.33;19.67;;;;;-2.52;50.58;102229.72;6182369;23;8836;-72
2022/01/13 11:54:37;;;;;;;;;19.33;19.00;;;;;-2.20;51.11;102236.22;6183377;23;8875;-71
2022/01/13 11:57:36;;;;;;;;;18.67;18.00;;;;;-2.03;50.43;102233.91;6183925;23;8808;-70
2022/01/13 12:00:32;;;;;;;;;21.00;20.33;;;;;-1.74;49.76;102235.34;6183657;23;8794;-69
2022/01/13 12:03:33;;;;;;;;;13.00;13.00;;;;;-1.69;49.38;102230.94;6183638;23;8778;-69
2022/01/13 12:06:44;;;;;;;;;15.33;14.33;;;;;-1.62;49.12;102230.06;6183074;23;8798;-68
2022/01/13 12:09:39;;;;;;;;;16.67;16.00;;;;;-1.91;49.36;102234.94;6183733;23;8805;-70
2022/01/13 12:12:39;;;;;;;;;17.33;17.33;;;;;-2.02;50.36;102214.72;6184169;23;8785;-68
2022/01/13 12:15:44;;;;;;;;;12.33;12.33;;;;;-1.98;50.87;102221.38;6183856;23;8892;-69
2022/01/13 12:18:42;;;;;;;;;14.00;12.00;;;;;-2.41;51.57;102203.88;6183394;23;8805;-68
2022/01/13 12:21:44;;;;;;;;;15.00;13.67;;;;;-2.15;51.30;102212.00;6183565;23;8814;-70
2022/01/13 12:24:54;;;;;;;;;34.33;18.67;;;;;-2.65;52.36;102211.56;6152536;23;8898;-70
2022/01/13 12:27:51;;;;;;;;;7.67;7.67;;;;;-2.55;51.90;102200.31;6153511;23;8805;-69
2022/01/13 12:30:49;;;;;;;;;30.67;27.00;;;;;-2.54;52.42;102201.97;6153567;23;8820;-68
2022/01/13 12:33:44;;;;;;;;;21.33;16.00;;;;;-2.91;53.25;102201.53;6153530;23;8905;-68
2022/01/13 12:36:43;;;;;;;;;10.00;10.00;;;;;-3.00;53.46;102201.91;6153598;23;8845;-69
2022/01/13 12:39:43;;;;;;;;;16.33;15.00;;;;;-3.05;53.80;102189.00;6135687;23;8802;-68
2022/01/13 12:42:52;;;;;;;;;6.33;6.33;;;;;-3.51;54.26;102194.22;6154457;23;8828;-70
2022/01/13 12:45:48;;;;;;;;;4.00;4.00;;;;;-3.07;55.41;102196.47;6153785;23;8802;-70
2022/01/13 12:48:51;;;;;;;;;18.67;15.67;;;;;-3.38;55.56;102188.84;6154037;23;8826;-69
2022/01/13 12:51:47;;;;;;;;;17.33;15.67;;;;;-3.16;55.94;102184.16;6153580;23;8907;-70
2022/01/13 12:54:47;;;;;;;;;8.00;8.00;;;;;-3.14;55.51;102190.22;6153920;23;8867;-69
2022/01/13 12:57:51;;;;;;;;;12.00;12.00;;;;;-3.46;55.55;102176.34;6153879;23;8848;-70
2022/01/13 13:00:47;;;;;;;;;10.33;10.33;;;;;-3.35;55.60;102177.66;6153539;23;8916;-69
2022/01/13 13:03:43;;;;;;;;;12.00;10.67;;;;;-3.63;56.21;102178.56;6153232;23;8797;-71
2022/01/13 13:06:43;;;;;;;;;13.00;13.00;;;;;-3.57;56.08;102171.53;6154707;23;8836;-70
2022/01/13 13:09:39;;;;;;;;;13.00;12.33;;;;;-3.62;56.22;102168.56;6154502;23;8805;-69
2022/01/13 13:12:35;;;;;;;;;15.67;14.33;;;;;-3.74;56.48;102160.22;6153649;23;8818;-69
2022/01/13 13:18:30;;;;;;;;;11.67;11.67;;;;;-3.75;56.44;102163.94;6154291;23;8840;-69
2022/01/13 13:21:27;;;;;;;;;16.00;15.33;;;;;-3.77;56.83;102154.34;6153179;23;9583;-69
2022/01/13 13:24:23;;;;;;;;;13.00;13.00;;;;;-3.72;56.67;102151.88;6180516;23;8839;-69
2022/01/13 13:27:29;;;;;;;;;17.33;16.00;;;;;-3.54;56.09;102148.63;6182538;23;8794;-69
2022/01/13 13:30:42;;;;;;;;;15.67;15.67;;;;;-3.82;57.01;102149.56;6183108;23;8887;-70
2022/01/13 13:33:43;;;;;;;;;18.00;16.67;;;;;-3.72;56.27;102146.47;6182919;23;8812;-69
2022/01/13 13:36:42;;;;;;;;;33.00;26.00;;;;;-3.71;56.63;102124.66;6182782;23;8904;-69
2022/01/13 13:39:37;;;;;;;;;15.67;13.00;;;;;-3.81;56.06;102126.06;6182884;23;8792;-69
2022/01/13 13:42:09;;;;;;;;;10.67;10.67;;;;;-3.96;56.03;102118.91;6195154;23;8782;-69
2022/01/13 13:45:11;;;;;;;;;13.00;13.00;;;;;-4.05;56.47;102119.28;6185258;23;8808;-69
2022/01/13 13:48:07;;;;;;;;;20.00;17.67;;;;;-4.38;57.19;102125.28;6184490;23;8877;-69
2022/01/13 13:51:02;;;;;;;;;14.33;9.00;;;;;-4.27;58.22;102122.06;6185135;23;8794;-69
2022/01/13 13:54:10;;;;;;;;;30.50;30.00;;;;;-4.40;57.76;102121.97;6184384;23;8809;-70